sensor_id;sensor_type;location;lat;lon;timestamp;P1;durP1;ratioP1;P2;durP2;ratioP2
69325;SDS011;56471;53.508;49.252;2022-12-18T00:01:12;12.00;;;5.20;;
69325;SDS011;56471;53.508;49.252;2022-12-18T00:03:43;12.93;;;4.90;;
69325;SDS011;56471;53.508;49.252;2022-12-18T00:06:10;10.45;;;4.45;;
69325;SDS011;56471;53.508;49.252;2022-12-18T00:08:36;13.18;;;5.00;;
69325;SDS011;56471;53.508;49.252;2022-12-18T00:11:06;11.73;;;5.00;;
69325;SDS011;56471;53.508;49.252;2022-12-18T00:13:34;12.75;;;5.20;;
69325;SDS011;56471;53.508;49.252;2022-12-18T00:16:03;10.75;;;4.68;;
69325;SDS011;56471;53.508;49.252;2022-12-18T00:18:31;11.20;;;5.50;;
69325;SDS011;56471;53.508;49.252;2022-12-18T00:20:58;10.15;;;4.72;;
69325;SDS011;56471;53.508;49.252;2022-12-18T00:23:25;13.18;;;5.03;;
69325;SDS011;56471;53.508;49.252;2022-12-18T00:25:52;12.18;;;5.47;;
69325;SDS011;56471;53.508;49.252;2022-12-18T00:28:17;10.32;;;4.95;;
69325;SDS011;56471;53.508;49.252;2022-12-18T00:30:43;12.63;;;5.30;;
69325;SDS011;56471;53.508;49.252;2022-12-18T00:33:09;12.43;;;4.93;;
69325;SDS011;56471;53.508;49.252;2022-12-18T00:35:35;10.18;;;5.05;;
69325;SDS011;56471;53.508;49.252;2022-12-18T00:38:00;9.80;;;4.97;;
69325;SDS011;56471;53.508;49.252;2022-12-18T00:40:26;13.32;;;5.28;;
69325;SDS011;56471;53.508;49.252;2022-12-18T00:42:52;10.93;;;4.88;;
69325;SDS011;56471;53.508;49.252;2022-12-18T00:45:27;11.35;;;5.18;;
69325;SDS011;56471;53.508;49.252;2022-12-18T00:47:55;9.25;;;4.90;;
69325;SDS011;56471;53.508;49.252;2022-12-18T00:50:21;11.45;;;4.85;;
69325;SDS011;56471;53.508;49.252;2022-12-18T00:52:48;13.15;;;4.97;;
69325;SDS011;56471;53.508;49.252;2022-12-18T00:55:14;9.82;;;4.80;;
69325;SDS011;56471;53.508;49.252;2022-12-18T00:57:40;10.68;;;4.85;;
69325;SDS011;56471;53.508;49.252;2022-12-18T01:00:08;11.13;;;5.10;;
69325;SDS011;56471;53.508;49.252;2022-12-18T01:02:36;13.20;;;5.10;;
69325;SDS011;56471;53.508;49.252;2022-12-18T01:05:04;12.07;;;5.40;;
69325;SDS011;56471;53.508;49.252;2022-12-18T01:07:30;11.50;;;5.40;;
69325;SDS011;56471;53.508;49.252;2022-12-18T01:09:56;12.38;;;5.40;;
69325;SDS011;56471;53.508;49.252;2022-12-18T01:12:22;11.13;;;5.65;;
69325;SDS011;56471;53.508;49.252;2022-12-18T01:14:48;10.50;;;4.80;;
69325;SDS011;56471;53.508;49.252;2022-12-18T01:17:13;10.60;;;5.00;;
69325;SDS011;56471;53.508;49.252;2022-12-18T01:19:39;11.65;;;5.18;;
69325;SDS011;56471;53.508;49.252;2022-12-18T01:22:05;10.80;;;4.80;;
69325;SDS011;56471;53.508;49.252;2022-12-18T01:24:31;8.85;;;4.65;;
69325;SDS011;56471;53.508;49.252;2022-12-18T01:26:56;12.93;;;5.05;;
69325;SDS011;56471;53.508;49.252;2022-12-18T01:29:23;11.05;;;4.80;;
69325;SDS011;56471;53.508;49.252;2022-12-18T01:31:48;12.43;;;4.60;;
69325;SDS011;56471;53.508;49.252;2022-12-18T01:34:14;8.90;;;4.75;;
69325;SDS011;56471;53.508;49.252;2022-12-18T01:36:40;9.05;;;4.78;;
69325;SDS011;56471;53.508;49.252;2022-12-18T01:39:07;10.07;;;4.60;;
69325;SDS011;56471;53.508;49.252;2022-12-18T01:41:35;8.65;;;4.70;;
69325;SDS011;56471;53.508;49.252;2022-12-18T01:47:35;11.50;;;4.80;;
69325;SDS011;56471;53.508;49.252;2022-12-18T01:50:23;7.07;;;4.25;;
69325;SDS011;56471;53.508;49.252;2022-12-18T01:52:52;9.45;;;4.15;;
69325;SDS011;56471;53.508;49.252;2022-12-18T01:55:32;7.10;;;3.80;;
69325;SDS011;56471;53.508;49.252;2022-12-18T01:58:03;7.78;;;4.22;;
69325;SDS011;56471;53.508;49.252;2022-12-18T02:00:30;7.25;;;4.20;;
69325;SDS011;56471;53.508;49.252;2022-12-18T02:02:56;8.02;;;4.00;;
69325;SDS011;56471;53.508;49.252;2022-12-18T02:05:37;9.07;;;4.10;;
69325;SDS011;56471;53.508;49.252;2022-12-18T02:08:25;7.18;;;3.60;;
69325;SDS011;56471;53.508;49.252;2022-12-18T02:11:13;9.43;;;3.67;;
69325;SDS011;56471;53.508;49.252;2022-12-18T02:19:44;6.65;;;3.63;;
69325;SDS011;56471;53.508;49.252;2022-12-18T02:27:50;5.97;;;3.25;;
69325;SDS011;56471;53.508;49.252;2022-12-18T02:30:17;6.80;;;3.33;;
69325;SDS011;56471;53.508;49.252;2022-12-18T02:32:46;5.55;;;3.38;;
69325;SDS011;56471;53.508;49.252;2022-12-18T02:35:19;6.18;;;3.00;;
69325;SDS011;56471;53.508;49.252;2022-12-18T02:37:48;4.93;;;3.10;;
69325;SDS011;56471;53.508;49.252;2022-12-18T02:40:15;6.53;;;3.25;;
69325;SDS011;56471;53.508;49.252;2022-12-18T02:42:42;5.88;;;3.20;;
69325;SDS011;56471;53.508;49.252;2022-12-18T02:45:08;5.13;;;3.13;;
69325;SDS011;56471;53.508;49.252;2022-12-18T02:47:36;5.60;;;3.22;;
69325;SDS011;56471;53.508;49.252;2022-12-18T02:53:13;4.80;;;2.90;;
69325;SDS011;56471;53.508;49.252;2022-12-18T02:56:01;6.13;;;2.95;;
69325;SDS011;56471;53.508;49.252;2022-12-18T03:01:34;6.45;;;3.30;;
69325;SDS011;56471;53.508;49.252;2022-12-18T03:04:25;6.18;;;3.10;;
69325;SDS011;56471;53.508;49.252;2022-12-18T03:06:55;6.00;;;2.83;;
69325;SDS011;56471;53.508;49.252;2022-12-18T03:09:33;5.97;;;2.78;;
69325;SDS011;56471;53.508;49.252;2022-12-18T03:12:04;6.22;;;2.75;;
69325;SDS011;56471;53.508;49.252;2022-12-18T03:17:35;4.65;;;2.80;;
69325;SDS011;56471;53.508;49.252;2022-12-18T03:20:07;3.88;;;2.53;;
69325;SDS011;56471;53.508;49.252;2022-12-18T03:22:38;4.15;;;2.45;;
69325;SDS011;56471;53.508;49.252;2022-12-18T03:25:07;4.50;;;2.55;;
69325;SDS011;56471;53.508;49.252;2022-12-18T03:27:36;3.67;;;2.63;;
69325;SDS011;56471;53.508;49.252;2022-12-18T03:30:07;5.78;;;2.40;;
69325;SDS011;56471;53.508;49.252;2022-12-18T03:32:43;4.20;;;2.38;;
69325;SDS011;56471;53.508;49.252;2022-12-18T03:35:23;5.28;;;2.70;;
69325;SDS011;56471;53.508;49.252;2022-12-18T03:37:53;3.63;;;2.33;;
69325;SDS011;56471;53.508;49.252;2022-12-18T03:40:20;4.20;;;2.35;;
69325;SDS011;56471;53.508;49.252;2022-12-18T03:42:52;3.75;;;2.35;;
69325;SDS011;56471;53.508;49.252;2022-12-18T03:46:04;3.95;;;2.33;;
69325;SDS011;56471;53.508;49.252;2022-12-18T03:49:07;4.55;;;2.60;;
69325;SDS011;56471;53.508;49.252;2022-12-18T03:51:10;3.72;;;2.47;;
69325;SDS011;56471;53.508;49.252;2022-12-18T03:54:05;4.35;;;2.42;;
69325;SDS011;56471;53.508;49.252;2022-12-18T03:56:35;4.38;;;2.22;;
69325;SDS011;56471;53.508;49.252;2022-12-18T03:59:05;5.32;;;2.40;;
69325;SDS011;56471;53.508;49.252;2022-12-18T04:01:37;5.25;;;2.55;;
69325;SDS011;56471;53.508;49.252;2022-12-18T04:04:06;3.88;;;2.20;;
69325;SDS011;56471;53.508;49.252;2022-12-18T04:06:33;3.63;;;2.10;;
69325;SDS011;56471;53.508;49.252;2022-12-18T04:08:59;4.05;;;2.33;;
69325;SDS011;56471;53.508;49.252;2022-12-18T04:11:25;3.42;;;2.20;;
69325;SDS011;56471;53.508;49.252;2022-12-18T04:13:54;3.72;;;2.47;;
69325;SDS011;56471;53.508;49.252;2022-12-18T04:16:22;3.28;;;2.20;;
69325;SDS011;56471;53.508;49.252;2022-12-18T04:18:49;3.83;;;2.42;;
69325;SDS011;56471;53.508;49.252;2022-12-18T04:21:14;3.13;;;2.13;;
69325;SDS011;56471;53.508;49.252;2022-12-18T04:23:40;3.90;;;2.30;;
69325;SDS011;56471;53.508;49.252;2022-12-18T04:26:06;3.05;;;2.10;;
69325;SDS011;56471;53.508;49.252;2022-12-18T04:28:31;3.17;;;2.25;;
69325;SDS011;56471;53.508;49.252;2022-12-18T04:30:57;3.80;;;2.00;;
69325;SDS011;56471;53.508;49.252;2022-12-18T04:33:23;3.10;;;1.88;;
69325;SDS011;56471;53.508;49.252;2022-12-18T04:35:48;3.25;;;2.10;;
69325;SDS011;56471;53.508;49.252;2022-12-18T04:38:14;3.50;;;2.20;;
69325;SDS011;56471;53.508;49.252;2022-12-18T04:40:40;2.88;;;2.08;;
69325;SDS011;56471;53.508;49.252;2022-12-18T04:43:06;3.08;;;2.08;;
69325;SDS011;56471;53.508;49.252;2022-12-18T04:45:32;3.30;;;2.10;;
69325;SDS011;56471;53.508;49.252;2022-12-18T04:47:59;2.63;;;1.80;;
69325;SDS011;56471;53.508;49.252;2022-12-18T04:50:25;3.50;;;2.10;;
69325;SDS011;56471;53.508;49.252;2022-12-18T04:52:51;2.45;;;1.75;;
69325;SDS011;56471;53.508;49.252;2022-12-18T04:55:17;2.47;;;1.70;;
69325;SDS011;56471;53.508;49.252;2022-12-18T04:57:42;2.88;;;1.92;;
69325;SDS011;56471;53.508;49.252;2022-12-18T05:00:08;4.10;;;2.17;;
69325;SDS011;56471;53.508;49.252;2022-12-18T05:02:34;2.83;;;1.77;;
69325;SDS011;56471;53.508;49.252;2022-12-18T05:05:00;3.08;;;1.83;;
69325;SDS011;56471;53.508;49.252;2022-12-18T05:07:26;1.88;;;1.50;;
69325;SDS011;56471;53.508;49.252;2022-12-18T05:09:52;2.92;;;1.80;;
69325;SDS011;56471;53.508;49.252;2022-12-18T05:12:17;2.72;;;1.83;;
69325;SDS011;56471;53.508;49.252;2022-12-18T05:14:43;3.72;;;2.13;;
69325;SDS011;56471;53.508;49.252;2022-12-18T05:17:09;2.42;;;1.88;;
69325;SDS011;56471;53.508;49.252;2022-12-18T05:19:35;2.13;;;1.60;;
69325;SDS011;56471;53.508;49.252;2022-12-18T05:22:00;2.40;;;1.50;;
69325;SDS011;56471;53.508;49.252;2022-12-18T05:24:26;2.92;;;1.90;;
69325;SDS011;56471;53.508;49.252;2022-12-18T05:26:52;2.42;;;1.80;;
69325;SDS011;56471;53.508;49.252;2022-12-18T05:29:18;2.00;;;1.55;;
69325;SDS011;56471;53.508;49.252;2022-12-18T05:31:43;2.95;;;1.77;;
69325;SDS011;56471;53.508;49.252;2022-12-18T05:34:09;2.35;;;1.60;;
69325;SDS011;56471;53.508;49.252;2022-12-18T05:36:35;2.67;;;1.77;;
69325;SDS011;56471;53.508;49.252;2022-12-18T05:39:01;2.30;;;1.60;;
69325;SDS011;56471;53.508;49.252;2022-12-18T05:41:27;3.30;;;1.98;;
69325;SDS011;56471;53.508;49.252;2022-12-18T05:43:53;3.88;;;1.60;;
69325;SDS011;56471;53.508;49.252;2022-12-18T05:46:19;2.83;;;1.85;;
69325;SDS011;56471;53.508;49.252;2022-12-18T05:48:45;2.78;;;2.10;;
69325;SDS011;56471;53.508;49.252;2022-12-18T05:51:15;2.88;;;1.98;;
69325;SDS011;56471;53.508;49.252;2022-12-18T05:53:42;3.95;;;2.55;;
69325;SDS011;56471;53.508;49.252;2022-12-18T05:56:09;5.07;;;2.75;;
69325;SDS011;56471;53.508;49.252;2022-12-18T05:58:40;4.10;;;2.40;;
69325;SDS011;56471;53.508;49.252;2022-12-18T06:01:07;4.68;;;3.00;;
69325;SDS011;56471;53.508;49.252;2022-12-18T06:03:35;6.25;;;3.33;;
69325;SDS011;56471;53.508;49.252;2022-12-18T06:06:01;4.18;;;3.03;;
69325;SDS011;56471;53.508;49.252;2022-12-18T06:08:27;5.30;;;3.20;;
69325;SDS011;56471;53.508;49.252;2022-12-18T06:10:53;6.47;;;3.65;;
69325;SDS011;56471;53.508;49.252;2022-12-18T06:13:19;6.93;;;3.45;;
69325;SDS011;56471;53.508;49.252;2022-12-18T06:15:45;7.05;;;3.90;;
69325;SDS011;56471;53.508;49.252;2022-12-18T06:18:11;7.85;;;3.85;;
69325;SDS011;56471;53.508;49.252;2022-12-18T06:20:37;8.30;;;3.75;;
69325;SDS011;56471;53.508;49.252;2022-12-18T06:23:05;8.05;;;3.97;;
69325;SDS011;56471;53.508;49.252;2022-12-18T06:25:31;8.73;;;4.13;;
69325;SDS011;56471;53.508;49.252;2022-12-18T06:27:58;7.63;;;4.38;;
69325;SDS011;56471;53.508;49.252;2022-12-18T06:30:24;8.15;;;4.47;;
69325;SDS011;56471;53.508;49.252;2022-12-18T06:32:50;11.20;;;4.57;;
69325;SDS011;56471;53.508;49.252;2022-12-18T06:35:16;8.73;;;4.50;;
69325;SDS011;56471;53.508;49.252;2022-12-18T06:37:41;8.27;;;4.75;;
69325;SDS011;56471;53.508;49.252;2022-12-18T06:40:07;8.70;;;4.70;;
69325;SDS011;56471;53.508;49.252;2022-12-18T06:42:33;9.00;;;4.88;;
69325;SDS011;56471;53.508;49.252;2022-12-18T06:44:59;10.45;;;5.15;;
69325;SDS011;56471;53.508;49.252;2022-12-18T06:47:24;11.48;;;5.72;;
69325;SDS011;56471;53.508;49.252;2022-12-18T06:49:50;11.35;;;5.68;;
69325;SDS011;56471;53.508;49.252;2022-12-18T06:52:16;11.02;;;5.45;;
69325;SDS011;56471;53.508;49.252;2022-12-18T06:54:42;13.15;;;5.55;;
69325;SDS011;56471;53.508;49.252;2022-12-18T06:57:08;12.38;;;5.30;;
69325;SDS011;56471;53.508;49.252;2022-12-18T06:59:34;14.05;;;5.85;;
69325;SDS011;56471;53.508;49.252;2022-12-18T07:01:59;13.85;;;5.78;;
69325;SDS011;56471;53.508;49.252;2022-12-18T07:04:31;13.05;;;5.65;;
69325;SDS011;56471;53.508;49.252;2022-12-18T07:06:57;10.75;;;5.47;;
69325;SDS011;56471;53.508;49.252;2022-12-18T07:09:23;10.85;;;5.70;;
69325;SDS011;56471;53.508;49.252;2022-12-18T07:11:49;13.35;;;6.57;;
69325;SDS011;56471;53.508;49.252;2022-12-18T07:14:14;14.10;;;6.22;;
69325;SDS011;56471;53.508;49.252;2022-12-18T07:16:40;15.18;;;6.47;;
69325;SDS011;56471;53.508;49.252;2022-12-18T07:19:06;13.73;;;6.10;;
69325;SDS011;56471;53.508;49.252;2022-12-18T07:21:32;12.02;;;6.30;;
69325;SDS011;56471;53.508;49.252;2022-12-18T07:23:57;13.02;;;6.35;;
69325;SDS011;56471;53.508;49.252;2022-12-18T07:26:23;14.10;;;7.15;;
69325;SDS011;56471;53.508;49.252;2022-12-18T07:28:49;13.90;;;6.50;;
69325;SDS011;56471;53.508;49.252;2022-12-18T07:31:16;15.38;;;6.78;;
69325;SDS011;56471;53.508;49.252;2022-12-18T07:33:44;13.38;;;6.50;;
69325;SDS011;56471;53.508;49.252;2022-12-18T07:36:10;15.07;;;6.50;;
69325;SDS011;56471;53.508;49.252;2022-12-18T07:38:36;15.27;;;6.20;;
69325;SDS011;56471;53.508;49.252;2022-12-18T07:41:03;15.15;;;6.40;;
69325;SDS011;56471;53.508;49.252;2022-12-18T07:43:30;12.82;;;6.35;;
69325;SDS011;56471;53.508;49.252;2022-12-18T07:45:56;13.45;;;6.72;;
69325;SDS011;56471;53.508;49.252;2022-12-18T07:48:22;14.25;;;6.30;;
69325;SDS011;56471;53.508;49.252;2022-12-18T07:50:48;13.90;;;6.70;;
69325;SDS011;56471;53.508;49.252;2022-12-18T07:53:15;12.35;;;6.80;;
69325;SDS011;56471;53.508;49.252;2022-12-18T07:55:41;16.20;;;6.90;;
69325;SDS011;56471;53.508;49.252;2022-12-18T07:58:07;11.60;;;6.32;;
69325;SDS011;56471;53.508;49.252;2022-12-18T08:00:34;13.30;;;6.07;;
69325;SDS011;56471;53.508;49.252;2022-12-18T08:03:00;13.27;;;6.35;;
69325;SDS011;56471;53.508;49.252;2022-12-18T08:05:26;12.23;;;6.13;;
69325;SDS011;56471;53.508;49.252;2022-12-18T08:07:54;12.57;;;6.53;;
69325;SDS011;56471;53.508;49.252;2022-12-18T08:10:20;13.45;;;7.00;;
69325;SDS011;56471;53.508;49.252;2022-12-18T08:12:48;15.75;;;7.07;;
69325;SDS011;56471;53.508;49.252;2022-12-18T08:15:14;14.00;;;6.75;;
69325;SDS011;56471;53.508;49.252;2022-12-18T08:17:40;13.55;;;6.32;;
69325;SDS011;56471;53.508;49.252;2022-12-18T08:20:06;14.77;;;6.55;;
69325;SDS011;56471;53.508;49.252;2022-12-18T08:22:33;13.20;;;6.22;;
69325;SDS011;56471;53.508;49.252;2022-12-18T08:25:00;15.95;;;7.03;;
69325;SDS011;56471;53.508;49.252;2022-12-18T08:27:26;11.02;;;6.40;;
69325;SDS011;56471;53.508;49.252;2022-12-18T08:29:52;14.45;;;6.60;;
69325;SDS011;56471;53.508;49.252;2022-12-18T08:32:18;10.80;;;6.10;;
69325;SDS011;56471;53.508;49.252;2022-12-18T08:34:44;12.60;;;5.97;;
69325;SDS011;56471;53.508;49.252;2022-12-18T08:37:09;15.70;;;6.32;;
69325;SDS011;56471;53.508;49.252;2022-12-18T08:39:35;9.70;;;6.05;;
69325;SDS011;56471;53.508;49.252;2022-12-18T08:42:01;11.73;;;6.00;;
69325;SDS011;56471;53.508;49.252;2022-12-18T08:44:45;10.32;;;5.93;;
69325;SDS011;56471;53.508;49.252;2022-12-18T08:47:11;10.02;;;5.47;;
69325;SDS011;56471;53.508;49.252;2022-12-18T08:49:36;12.02;;;6.32;;
69325;SDS011;56471;53.508;49.252;2022-12-18T08:52:02;12.18;;;6.10;;
69325;SDS011;56471;53.508;49.252;2022-12-18T08:54:28;10.55;;;5.68;;
69325;SDS011;56471;53.508;49.252;2022-12-18T08:56:54;10.35;;;5.63;;
69325;SDS011;56471;53.508;49.252;2022-12-18T08:59:19;10.50;;;5.32;;
69325;SDS011;56471;53.508;49.252;2022-12-18T09:01:45;10.63;;;5.68;;
69325;SDS011;56471;53.508;49.252;2022-12-18T09:04:12;12.82;;;5.78;;
69325;SDS011;56471;53.508;49.252;2022-12-18T09:06:39;10.10;;;5.40;;
69325;SDS011;56471;53.508;49.252;2022-12-18T09:09:05;9.80;;;5.68;;
69325;SDS011;56471;53.508;49.252;2022-12-18T09:11:31;9.73;;;5.15;;
69325;SDS011;56471;53.508;49.252;2022-12-18T09:13:59;12.90;;;5.72;;
69325;SDS011;56471;53.508;49.252;2022-12-18T09:16:26;9.88;;;5.45;;
69325;SDS011;56471;53.508;49.252;2022-12-18T09:18:56;8.65;;;5.07;;
69325;SDS011;56471;53.508;49.252;2022-12-18T09:21:26;9.77;;;4.97;;
69325;SDS011;56471;53.508;49.252;2022-12-18T09:23:55;8.13;;;5.15;;
69325;SDS011;56471;53.508;49.252;2022-12-18T09:26:21;11.25;;;4.88;;
69325;SDS011;56471;53.508;49.252;2022-12-18T09:28:48;9.60;;;5.22;;
69325;SDS011;56471;53.508;49.252;2022-12-18T09:31:15;9.90;;;4.70;;
69325;SDS011;56471;53.508;49.252;2022-12-18T09:33:41;7.75;;;4.80;;
69325;SDS011;56471;53.508;49.252;2022-12-18T09:36:08;8.20;;;4.72;;
69325;SDS011;56471;53.508;49.252;2022-12-18T09:38:37;8.25;;;4.40;;
69325;SDS011;56471;53.508;49.252;2022-12-18T09:43:51;7.30;;;4.30;;
69325;SDS011;56471;53.508;49.252;2022-12-18T09:46:23;8.13;;;4.32;;
69325;SDS011;56471;53.508;49.252;2022-12-18T09:48:54;7.32;;;3.90;;
69325;SDS011;56471;53.508;49.252;2022-12-18T09:51:26;6.93;;;4.35;;
69325;SDS011;56471;53.508;49.252;2022-12-18T09:54:10;7.70;;;4.20;;
69325;SDS011;56471;53.508;49.252;2022-12-18T09:56:40;6.82;;;4.10;;
69325;SDS011;56471;53.508;49.252;2022-12-18T09:59:14;6.93;;;4.22;;
69325;SDS011;56471;53.508;49.252;2022-12-18T10:01:52;6.88;;;4.07;;
69325;SDS011;56471;53.508;49.252;2022-12-18T10:04:17;6.15;;;4.07;;
69325;SDS011;56471;53.508;49.252;2022-12-18T10:09:35;7.43;;;4.07;;
69325;SDS011;56471;53.508;49.252;2022-12-18T10:12:18;6.50;;;3.88;;
69325;SDS011;56471;53.508;49.252;2022-12-18T10:14:59;10.55;;;4.50;;
69325;SDS011;56471;53.508;49.252;2022-12-18T10:20:13;9.48;;;4.43;;
69325;SDS011;56471;53.508;49.252;2022-12-18T10:28:31;7.90;;;4.47;;
69325;SDS011;56471;53.508;49.252;2022-12-18T10:30:58;6.95;;;4.38;;
69325;SDS011;56471;53.508;49.252;2022-12-18T10:33:28;9.15;;;4.90;;
69325;SDS011;56471;53.508;49.252;2022-12-18T10:35:55;7.85;;;4.72;;
69325;SDS011;56471;53.508;49.252;2022-12-18T10:38:22;7.60;;;4.47;;
69325;SDS011;56471;53.508;49.252;2022-12-18T10:40:57;8.47;;;4.60;;
69325;SDS011;56471;53.508;49.252;2022-12-18T10:43:44;8.15;;;4.38;;
69325;SDS011;56471;53.508;49.252;2022-12-18T10:48:36;8.88;;;4.70;;
69325;SDS011;56471;53.508;49.252;2022-12-18T10:51:20;7.32;;;4.03;;
69325;SDS011;56471;53.508;49.252;2022-12-18T10:54:00;6.38;;;3.97;;
69325;SDS011;56471;53.508;49.252;2022-12-18T10:56:31;6.63;;;4.00;;
69325;SDS011;56471;53.508;49.252;2022-12-18T10:59:01;6.90;;;3.45;;
69325;SDS011;56471;53.508;49.252;2022-12-18T11:04:18;6.03;;;3.65;;
69325;SDS011;56471;53.508;49.252;2022-12-18T11:06:54;6.07;;;3.83;;
69325;SDS011;56471;53.508;49.252;2022-12-18T11:11:51;9.05;;;3.55;;
69325;SDS011;56471;53.508;49.252;2022-12-18T11:16:47;7.25;;;3.55;;
69325;SDS011;56471;53.508;49.252;2022-12-18T11:19:19;6.25;;;3.70;;
69325;SDS011;56471;53.508;49.252;2022-12-18T11:21:49;6.72;;;3.60;;
69325;SDS011;56471;53.508;49.252;2022-12-18T11:24:34;847.67;;;498.77;;
69325;SDS011;56471;53.508;49.252;2022-12-18T11:27:05;482.05;;;256.05;;
69325;SDS011;56471;53.508;49.252;2022-12-18T11:29:40;267.10;;;128.98;;
69325;SDS011;56471;53.508;49.252;2022-12-18T11:35:14;109.28;;;50.78;;
69325;SDS011;56471;53.508;49.252;2022-12-18T11:37:47;75.35;;;32.97;;
69325;SDS011;56471;53.508;49.252;2022-12-18T11:40:42;50.28;;;22.35;;
69325;SDS011;56471;53.508;49.252;2022-12-18T11:43:17;40.45;;;17.75;;
69325;SDS011;56471;53.508;49.252;2022-12-18T11:46:24;31.13;;;14.48;;
69325;SDS011;56471;53.508;49.252;2022-12-18T11:49:34;24.13;;;11.15;;
69325;SDS011;56471;53.508;49.252;2022-12-18T11:52:00;23.23;;;10.48;;
69325;SDS011;56471;53.508;49.252;2022-12-18T11:54:34;22.13;;;10.68;;
69325;SDS011;56471;53.508;49.252;2022-12-18T11:57:03;20.52;;;9.82;;
69325;SDS011;56471;53.508;49.252;2022-12-18T11:59:55;18.65;;;9.50;;
69325;SDS011;56471;53.508;49.252;2022-12-18T12:08:00;17.73;;;8.75;;
69325;SDS011;56471;53.508;49.252;2022-12-18T12:10:35;17.23;;;8.50;;
69325;SDS011;56471;53.508;49.252;2022-12-18T12:13:30;15.50;;;8.35;;
69325;SDS011;56471;53.508;49.252;2022-12-18T12:40:58;94.88;;;39.42;;
69325;SDS011;56471;53.508;49.252;2022-12-18T12:48:34;43.33;;;17.85;;
69325;SDS011;56471;53.508;49.252;2022-12-18T12:51:08;32.93;;;14.40;;
69325;SDS011;56471;53.508;49.252;2022-12-18T12:53:39;27.35;;;11.93;;
69325;SDS011;56471;53.508;49.252;2022-12-18T12:56:06;21.23;;;10.23;;
69325;SDS011;56471;53.508;49.252;2022-12-18T13:13:06;16.33;;;7.90;;
69325;SDS011;56471;53.508;49.252;2022-12-18T13:15:45;13.27;;;7.25;;
69325;SDS011;56471;53.508;49.252;2022-12-18T13:18:15;12.73;;;6.82;;
69325;SDS011;56471;53.508;49.252;2022-12-18T13:20:46;14.10;;;6.65;;
69325;SDS011;56471;53.508;49.252;2022-12-18T13:30:59;10.40;;;6.13;;
69325;SDS011;56471;53.508;49.252;2022-12-18T13:36:02;10.48;;;5.55;;
69325;SDS011;56471;53.508;49.252;2022-12-18T13:38:36;9.85;;;5.22;;
69325;SDS011;56471;53.508;49.252;2022-12-18T13:43:52;8.70;;;5.00;;
69325;SDS011;56471;53.508;49.252;2022-12-18T13:49:18;7.78;;;4.70;;
69325;SDS011;56471;53.508;49.252;2022-12-18T13:51:52;8.60;;;5.00;;
69325;SDS011;56471;53.508;49.252;2022-12-18T13:57:00;7.57;;;4.75;;
69325;SDS011;56471;53.508;49.252;2022-12-18T13:59:33;7.13;;;4.10;;
69325;SDS011;56471;53.508;49.252;2022-12-18T14:02:05;6.47;;;4.32;;
69325;SDS011;56471;53.508;49.252;2022-12-18T14:04:39;7.22;;;4.72;;
69325;SDS011;56471;53.508;49.252;2022-12-18T14:07:11;8.65;;;5.13;;
69325;SDS011;56471;53.508;49.252;2022-12-18T14:09:43;620.22;;;287.77;;
69325;SDS011;56471;53.508;49.252;2022-12-18T14:12:14;895.50;;;487.23;;
69325;SDS011;56471;53.508;49.252;2022-12-18T14:15:01;524.42;;;266.55;;
69325;SDS011;56471;53.508;49.252;2022-12-18T14:17:27;330.73;;;145.07;;
69325;SDS011;56471;53.508;49.252;2022-12-18T14:19:53;203.07;;;92.85;;
69325;SDS011;56471;53.508;49.252;2022-12-18T14:22:25;144.30;;;66.55;;
69325;SDS011;56471;53.508;49.252;2022-12-18T14:27:48;82.75;;;34.25;;
69325;SDS011;56471;53.508;49.252;2022-12-18T14:30:24;67.18;;;27.15;;
69325;SDS011;56471;53.508;49.252;2022-12-18T14:35:41;35.92;;;15.95;;
69325;SDS011;56471;53.508;49.252;2022-12-18T14:41:03;24.98;;;10.90;;
69325;SDS011;56471;53.508;49.252;2022-12-18T14:43:35;21.55;;;9.20;;
69325;SDS011;56471;53.508;49.252;2022-12-18T14:46:02;18.42;;;8.65;;
69325;SDS011;56471;53.508;49.252;2022-12-18T14:48:35;17.45;;;8.35;;
69325;SDS011;56471;53.508;49.252;2022-12-18T14:51:05;18.20;;;8.90;;
69325;SDS011;56471;53.508;49.252;2022-12-18T14:53:40;20.25;;;9.63;;
69325;SDS011;56471;53.508;49.252;2022-12-18T14:56:27;813.40;;;450.85;;
69325;SDS011;56471;53.508;49.252;2022-12-18T14:58:56;487.13;;;249.98;;
69325;SDS011;56471;53.508;49.252;2022-12-18T15:01:28;307.90;;;138.50;;
69325;SDS011;56471;53.508;49.252;2022-12-18T15:04:05;185.30;;;86.88;;
69325;SDS011;56471;53.508;49.252;2022-12-18T15:09:36;88.53;;;37.72;;
69325;SDS011;56471;53.508;49.252;2022-12-18T15:12:03;68.95;;;30.02;;
69325;SDS011;56471;53.508;49.252;2022-12-18T15:16:55;46.30;;;19.55;;
69325;SDS011;56471;53.508;49.252;2022-12-18T15:19:25;41.30;;;18.40;;
69325;SDS011;56471;53.508;49.252;2022-12-18T15:22:03;36.92;;;16.58;;
69325;SDS011;56471;53.508;49.252;2022-12-18T15:24:30;34.50;;;15.38;;
69325;SDS011;56471;53.508;49.252;2022-12-18T15:26:57;30.83;;;13.52;;
69325;SDS011;56471;53.508;49.252;2022-12-18T15:29:24;29.70;;;13.00;;
69325;SDS011;56471;53.508;49.252;2022-12-18T15:32:04;25.10;;;11.50;;
69325;SDS011;56471;53.508;49.252;2022-12-18T15:34:31;24.67;;;11.05;;
69325;SDS011;56471;53.508;49.252;2022-12-18T15:36:59;22.38;;;10.15;;
69325;SDS011;56471;53.508;49.252;2022-12-18T15:39:25;21.80;;;9.70;;
69325;SDS011;56471;53.508;49.252;2022-12-18T15:41:51;18.88;;;8.77;;
69325;SDS011;56471;53.508;49.252;2022-12-18T15:44:35;17.70;;;8.38;;
69325;SDS011;56471;53.508;49.252;2022-12-18T15:47:02;16.52;;;8.20;;
69325;SDS011;56471;53.508;49.252;2022-12-18T15:49:27;16.13;;;7.70;;
69325;SDS011;56471;53.508;49.252;2022-12-18T15:51:54;16.13;;;7.00;;
69325;SDS011;56471;53.508;49.252;2022-12-18T15:54:23;14.27;;;6.60;;
69325;SDS011;56471;53.508;49.252;2022-12-18T15:57:10;13.95;;;6.97;;
69325;SDS011;56471;53.508;49.252;2022-12-18T15:59:49;12.02;;;6.00;;
69325;SDS011;56471;53.508;49.252;2022-12-18T16:02:18;12.45;;;6.30;;
69325;SDS011;56471;53.508;49.252;2022-12-18T16:04:44;11.75;;;5.95;;
69325;SDS011;56471;53.508;49.252;2022-12-18T16:07:13;12.48;;;5.75;;
69325;SDS011;56471;53.508;49.252;2022-12-18T16:09:39;9.77;;;5.40;;
69325;SDS011;56471;53.508;49.252;2022-12-18T16:12:14;9.70;;;4.82;;
69325;SDS011;56471;53.508;49.252;2022-12-18T16:14:42;9.38;;;4.85;;
69325;SDS011;56471;53.508;49.252;2022-12-18T16:17:09;9.18;;;4.43;;
69325;SDS011;56471;53.508;49.252;2022-12-18T16:19:36;8.73;;;4.70;;
69325;SDS011;56471;53.508;49.252;2022-12-18T16:22:01;8.93;;;4.60;;
69325;SDS011;56471;53.508;49.252;2022-12-18T16:24:31;8.68;;;4.45;;
69325;SDS011;56471;53.508;49.252;2022-12-18T16:26:59;9.05;;;4.50;;
69325;SDS011;56471;53.508;49.252;2022-12-18T16:29:26;7.53;;;4.13;;
69325;SDS011;56471;53.508;49.252;2022-12-18T16:31:53;7.75;;;3.85;;
69325;SDS011;56471;53.508;49.252;2022-12-18T16:34:21;7.82;;;3.90;;
69325;SDS011;56471;53.508;49.252;2022-12-18T16:36:59;6.63;;;3.70;;
69325;SDS011;56471;53.508;49.252;2022-12-18T16:39:27;6.30;;;3.60;;
69325;SDS011;56471;53.508;49.252;2022-12-18T16:41:53;7.70;;;4.00;;
69325;SDS011;56471;53.508;49.252;2022-12-18T16:44:19;6.20;;;3.60;;
69325;SDS011;56471;53.508;49.252;2022-12-18T16:46:45;6.35;;;3.50;;
69325;SDS011;56471;53.508;49.252;2022-12-18T16:49:12;6.72;;;3.85;;
69325;SDS011;56471;53.508;49.252;2022-12-18T16:51:41;5.88;;;3.53;;
69325;SDS011;56471;53.508;49.252;2022-12-18T16:54:08;6.07;;;3.88;;